createdAt,value
2023-01-29T00:00:19.273Z,9.63
2023-01-29T00:02:47.860Z,11.02
2023-01-29T00:05:27.534Z,8.98
2023-01-29T00:07:56.796Z,7.85
2023-01-29T00:10:27.189Z,8.48
2023-01-29T00:12:55.767Z,11.10
2023-01-29T00:15:24.292Z,7.78
2023-01-29T00:17:52.581Z,11.45
2023-01-29T00:20:21.005Z,8.88
2023-01-29T00:22:49.488Z,10.13
2023-01-29T00:25:18.090Z,8.48
2023-01-29T00:27:47.886Z,9.82
2023-01-29T00:30:19.612Z,10.25
2023-01-29T00:32:48.703Z,7.13
2023-01-29T00:35:17.247Z,9.15
2023-01-29T00:37:45.944Z,6.78
2023-01-29T00:40:15.415Z,8.50
2023-01-29T00:43:04.970Z,7.70
2023-01-29T00:45:34.074Z,7.93
2023-01-29T00:48:02.583Z,9.25
2023-01-29T00:50:31.650Z,7.90
2023-01-29T00:53:00.150Z,8.23
2023-01-29T00:55:28.445Z,9.43
2023-01-29T00:57:58.311Z,7.65
2023-01-29T01:00:26.840Z,9.00
2023-01-29T01:03:06.246Z,8.80
2023-01-29T01:05:36.776Z,10.20
2023-01-29T01:08:25.820Z,7.63
2023-01-29T01:11:00.478Z,7.68
2023-01-29T01:13:30.543Z,8.80
2023-01-29T01:15:59.314Z,10.65
2023-01-29T01:18:32.390Z,11.25
2023-01-29T01:21:00.756Z,10.55
2023-01-29T01:23:29.188Z,7.72
2023-01-29T01:25:57.724Z,8.05
2023-01-29T01:28:26.347Z,6.70
2023-01-29T01:30:56.450Z,7.75
2023-01-29T01:33:25.454Z,8.38
2023-01-29T01:35:53.947Z,9.57
2023-01-29T01:38:22.756Z,9.40
2023-01-29T01:40:51.039Z,8.70
2023-01-29T01:43:19.570Z,11.50
2023-01-29T01:45:48.499Z,6.93
2023-01-29T01:48:21.925Z,9.63
2023-01-29T01:50:55.315Z,8.38
2023-01-29T01:53:29.815Z,7.25
2023-01-29T01:56:03.627Z,10.57
2023-01-29T01:58:36.161Z,13.88
2023-01-29T02:01:06.008Z,7.65
2023-01-29T02:04:01.409Z,8.77
2023-01-29T02:06:47.811Z,9.35
2023-01-29T02:09:35.280Z,10.73
2023-01-29T02:12:05.180Z,8.05
2023-01-29T02:14:38.794Z,9.00
2023-01-29T02:17:09.236Z,6.83
2023-01-29T02:19:49.500Z,9.95
2023-01-29T02:22:42.695Z,6.60
2023-01-29T02:25:41.585Z,7.93
2023-01-29T02:28:33.606Z,7.40
2023-01-29T02:31:12.083Z,10.85
2023-01-29T02:33:53.952Z,8.60
2023-01-29T02:36:42.610Z,7.95
2023-01-29T02:39:18.646Z,9.00
2023-01-29T02:41:56.325Z,6.38
2023-01-29T02:44:35.380Z,7.25
2023-01-29T02:47:10.287Z,7.55
2023-01-29T02:49:48.043Z,8.88
2023-01-29T02:52:20.464Z,11.70
2023-01-29T02:54:56.521Z,6.03
2023-01-29T02:57:29.996Z,6.32
2023-01-29T03:00:06.980Z,8.02
2023-01-29T03:02:43.981Z,7.65
2023-01-29T03:05:18.764Z,9.30
2023-01-29T03:10:34.325Z,10.32
2023-01-29T03:13:08.407Z,9.52
2023-01-29T03:15:47.368Z,9.60
2023-01-29T03:18:43.608Z,8.43
2023-01-29T03:21:37.369Z,9.20
2023-01-29T03:24:28.017Z,7.68
2023-01-29T03:27:17.463Z,7.65
2023-01-29T03:30:06.165Z,13.75
2023-01-29T03:32:57.963Z,11.45
2023-01-29T03:38:05.472Z,8.57
2023-01-29T03:40:41.371Z,9.63
2023-01-29T03:43:15.971Z,7.35
2023-01-29T03:45:53.544Z,8.38
2023-01-29T03:48:35.236Z,8.13
2023-01-29T03:51:21.549Z,9.55
2023-01-29T03:53:55.131Z,13.43
2023-01-29T03:56:40.469Z,7.25
2023-01-29T03:59:24.087Z,8.15
2023-01-29T04:02:10.322Z,7.03
2023-01-29T04:04:45.470Z,11.68
2023-01-29T04:07:17.446Z,8.98
2023-01-29T04:09:51.042Z,7.45
2023-01-29T04:12:27.055Z,7.75
2023-01-29T04:14:57.023Z,8.82
2023-01-29T04:17:32.947Z,10.55
2023-01-29T04:20:15.283Z,10.20
2023-01-29T04:22:48.201Z,9.88
2023-01-29T04:25:19.318Z,9.93
2023-01-29T04:27:59.242Z,10.25
2023-01-29T04:30:40.082Z,8.68
2023-01-29T04:33:22.815Z,8.65
2023-01-29T04:36:08.999Z,10.70
2023-01-29T04:38:52.621Z,10.10
2023-01-29T04:41:26.761Z,9.70
2023-01-29T04:44:04.712Z,9.00
2023-01-29T04:46:43.623Z,8.05
2023-01-29T04:49:24.708Z,8.93
2023-01-29T04:52:02.788Z,8.13
2023-01-29T04:54:54.176Z,7.50
2023-01-29T04:57:28.159Z,7.30
2023-01-29T05:00:01.735Z,9.73
2023-01-29T05:02:31.731Z,16.33
2023-01-29T05:05:00.479Z,11.32
2023-01-29T05:07:32.138Z,9.93
2023-01-29T05:10:01.374Z,11.30
2023-01-29T05:12:31.650Z,10.52
2023-01-29T05:15:05.880Z,10.82
2023-01-29T05:17:34.342Z,8.05
2023-01-29T05:20:02.685Z,7.93
2023-01-29T05:22:32.617Z,8.80
2023-01-29T05:25:01.044Z,9.50
2023-01-29T05:27:53.424Z,7.32
2023-01-29T05:30:21.815Z,11.05
2023-01-29T05:32:50.089Z,13.13
2023-01-29T05:35:18.437Z,11.32
2023-01-29T05:37:47.982Z,8.00
2023-01-29T05:40:17.232Z,8.77
2023-01-29T05:42:45.993Z,7.90
2023-01-29T05:45:14.436Z,10.38
2023-01-29T05:47:42.790Z,9.05
2023-01-29T05:50:12.890Z,12.68
2023-01-29T05:52:41.578Z,10.68
2023-01-29T05:55:11.891Z,10.00
2023-01-29T05:57:41.618Z,11.10
2023-01-29T06:00:13.078Z,13.43
2023-01-29T06:02:41.398Z,11.82
2023-01-29T06:05:10.474Z,11.85
2023-01-29T06:07:41.712Z,9.70
2023-01-29T06:10:13.931Z,7.78
2023-01-29T06:12:43.093Z,13.57
2023-01-29T06:15:15.517Z,8.63
2023-01-29T06:17:44.300Z,12.70
2023-01-29T06:20:13.607Z,8.27
2023-01-29T06:22:41.875Z,10.52
2023-01-29T06:25:12.203Z,10.80
2023-01-29T06:27:40.419Z,8.25
2023-01-29T06:30:10.659Z,9.30
2023-01-29T06:32:39.083Z,9.80
2023-01-29T06:35:09.884Z,8.88
2023-01-29T06:37:38.704Z,10.07
2023-01-29T06:40:08.997Z,11.00
2023-01-29T06:42:38.623Z,11.85
2023-01-29T06:45:08.299Z,11.05
2023-01-29T06:47:36.870Z,10.07
2023-01-29T06:50:05.901Z,9.98
2023-01-29T06:52:34.429Z,10.65
2023-01-29T06:55:02.834Z,11.27
2023-01-29T06:57:31.097Z,11.07
2023-01-29T07:00:00.785Z,12.77
2023-01-29T07:02:30.191Z,11.82
2023-01-29T07:04:58.446Z,10.18
2023-01-29T07:07:26.845Z,9.15
2023-01-29T07:09:55.057Z,12.50
2023-01-29T07:12:23.304Z,10.68
2023-01-29T07:14:51.690Z,12.40
2023-01-29T07:17:21.599Z,10.75
2023-01-29T07:19:50.091Z,8.80
2023-01-29T07:22:18.355Z,10.52
2023-01-29T07:24:48.471Z,11.10
2023-01-29T07:27:16.806Z,11.02
2023-01-29T07:29:45.125Z,11.15
2023-01-29T07:32:13.576Z,11.10
2023-01-29T07:34:43.394Z,12.77
2023-01-29T07:37:12.859Z,10.32
2023-01-29T07:39:41.103Z,11.70
2023-01-29T07:42:09.557Z,12.35
2023-01-29T07:44:37.819Z,11.35
2023-01-29T07:47:06.530Z,11.18
2023-01-29T07:49:34.993Z,13.00
2023-01-29T07:52:04.939Z,13.73
2023-01-29T07:54:33.606Z,10.43
2023-01-29T07:57:02.105Z,9.43
2023-01-29T07:59:30.419Z,10.77
2023-01-29T08:01:58.822Z,9.65
2023-01-29T08:04:27.144Z,13.25
2023-01-29T08:06:55.648Z,11.70
2023-01-29T08:09:25.324Z,14.63
2023-01-29T08:11:53.724Z,10.80
2023-01-29T08:14:22.049Z,11.00
2023-01-29T08:16:50.564Z,9.93
2023-01-29T08:19:18.985Z,15.88
2023-01-29T08:21:47.287Z,14.05
2023-01-29T08:24:15.553Z,13.57
2023-01-29T08:26:45.252Z,12.00
2023-01-29T08:29:14.048Z,18.35
2023-01-29T08:31:42.523Z,14.13
2023-01-29T08:34:10.929Z,17.55
2023-01-29T08:36:39.245Z,13.23
2023-01-29T08:39:07.585Z,12.73
2023-01-29T08:41:35.969Z,10.65
2023-01-29T08:44:06.516Z,11.25
2023-01-29T08:46:34.896Z,12.63
2023-01-29T08:49:03.374Z,14.57
2023-01-29T08:51:31.614Z,14.40
2023-01-29T08:54:00.206Z,11.75
2023-01-29T08:56:28.535Z,11.70
2023-01-29T08:58:58.327Z,13.95
2023-01-29T09:01:28.691Z,14.73
2023-01-29T09:03:56.993Z,18.50
2023-01-29T09:06:25.351Z,22.20
2023-01-29T09:08:54.062Z,14.02
2023-01-29T09:11:22.471Z,10.05
2023-01-29T09:13:50.825Z,14.70
2023-01-29T09:16:19.106Z,23.20
2023-01-29T09:18:48.687Z,11.10
2023-01-29T09:21:16.948Z,15.38
2023-01-29T09:23:45.250Z,15.15
2023-01-29T09:26:13.648Z,10.88
2023-01-29T09:28:41.929Z,10.95
2023-01-29T09:31:10.242Z,13.40
2023-01-29T09:33:38.643Z,15.10
2023-01-29T09:36:09.515Z,10.75
2023-01-29T09:38:37.770Z,16.15
2023-01-29T09:41:21.462Z,13.50
2023-01-29T09:43:54.731Z,9.45
2023-01-29T09:46:29.702Z,9.98
2023-01-29T09:51:39.757Z,9.02
2023-01-29T09:54:20.050Z,10.43
2023-01-29T09:56:51.978Z,11.30
2023-01-29T09:59:23.838Z,14.10
2023-01-29T10:02:05.872Z,12.90
2023-01-29T10:05:07.029Z,10.43
2023-01-29T10:08:08.649Z,10.80
2023-01-29T10:10:49.753Z,11.23
2023-01-29T10:13:30.171Z,11.93
2023-01-29T10:16:20.301Z,9.45
2023-01-29T10:19:20.039Z,10.43
2023-01-29T10:22:24.473Z,8.07
2023-01-29T10:24:58.269Z,14.02
2023-01-29T10:27:35.617Z,11.80
2023-01-29T10:30:10.011Z,10.45
2023-01-29T10:32:39.440Z,10.13
2023-01-29T10:35:25.339Z,9.38
2023-01-29T10:37:55.073Z,10.73
2023-01-29T10:40:33.580Z,10.90
2023-01-29T10:43:07.778Z,17.13
2023-01-29T10:45:45.529Z,10.45
2023-01-29T10:48:49.662Z,13.82
2023-01-29T10:51:36.176Z,16.45
2023-01-29T10:54:22.784Z,16.65
2023-01-29T10:57:08.341Z,12.57
2023-01-29T10:59:54.263Z,12.52
2023-01-29T11:02:23.110Z,12.05
2023-01-29T11:04:51.550Z,12.68
2023-01-29T11:07:23.179Z,17.77
2023-01-29T11:09:58.450Z,11.77
2023-01-29T11:12:32.004Z,11.98
2023-01-29T11:15:05.640Z,12.20
2023-01-29T11:17:34.053Z,14.05
2023-01-29T11:20:02.439Z,12.98
2023-01-29T11:22:32.090Z,11.30
2023-01-29T11:25:17.583Z,11.57
2023-01-29T11:30:23.305Z,16.05
2023-01-29T11:32:59.192Z,14.70
2023-01-29T11:35:30.119Z,11.40
2023-01-29T11:38:10.759Z,14.00
2023-01-29T11:40:41.348Z,11.23
2023-01-29T11:43:30.797Z,12.82
2023-01-29T11:46:03.178Z,13.20
2023-01-29T11:48:42.009Z,11.00
2023-01-29T11:51:14.035Z,12.52
2023-01-29T11:53:45.760Z,17.08
2023-01-29T11:56:25.772Z,11.88
2023-01-29T11:58:57.706Z,13.25
2023-01-29T12:01:34.468Z,15.10
2023-01-29T12:04:04.127Z,12.82
2023-01-29T12:06:36.515Z,11.20
2023-01-29T12:09:14.451Z,14.18
2023-01-29T12:11:44.577Z,21.83
2023-01-29T12:14:30.005Z,12.50
2023-01-29T12:17:03.139Z,17.25
2023-01-29T12:19:39.372Z,10.32
2023-01-29T12:22:16.588Z,13.30
2023-01-29T12:24:54.967Z,12.60
2023-01-29T12:27:29.717Z,15.50
2023-01-29T12:30:06.269Z,13.70
2023-01-29T12:32:45.677Z,14.88
2023-01-29T12:35:22.517Z,13.82
2023-01-29T12:37:57.606Z,14.07
2023-01-29T12:43:03.764Z,11.48
2023-01-29T12:45:37.433Z,12.60
2023-01-29T12:48:10.321Z,14.18
2023-01-29T12:50:39.714Z,11.98
2023-01-29T12:53:24.261Z,12.32
2023-01-29T12:55:56.375Z,12.10
2023-01-29T12:58:30.165Z,15.88
2023-01-29T13:01:06.349Z,14.13
2023-01-29T13:03:40.580Z,15.50
2023-01-29T13:06:13.901Z,12.60
2023-01-29T13:08:46.881Z,13.70
2023-01-29T13:11:22.227Z,15.48
2023-01-29T13:13:55.465Z,14.45
2023-01-29T13:16:31.520Z,12.75
2023-01-29T13:19:04.043Z,13.98
2023-01-29T13:21:39.080Z,11.68
2023-01-29T13:26:42.398Z,10.38
2023-01-29T13:29:24.150Z,11.07
2023-01-29T13:31:55.643Z,16.70
2023-01-29T13:34:28.377Z,16.02
2023-01-29T13:37:00.519Z,13.57
2023-01-29T13:39:32.348Z,11.65
2023-01-29T13:42:02.590Z,12.10
2023-01-29T13:44:39.090Z,13.43
2023-01-29T13:47:11.617Z,17.02
2023-01-29T13:49:43.697Z,16.00
2023-01-29T13:52:35.755Z,12.10
2023-01-29T13:55:07.394Z,13.45
2023-01-29T13:57:56.552Z,12.23
2023-01-29T14:00:59.144Z,18.35
2023-01-29T14:04:03.657Z,12.57
2023-01-29T14:06:42.992Z,13.52
2023-01-29T14:10:06.040Z,14.23
2023-01-29T14:12:47.232Z,13.35
2023-01-29T14:15:39.257Z,11.88
2023-01-29T14:18:22.389Z,18.08
2023-01-29T14:21:02.360Z,13.68
2023-01-29T14:23:47.763Z,11.88
2023-01-29T14:26:31.348Z,16.08
2023-01-29T14:29:08.555Z,13.93
2023-01-29T14:31:45.909Z,16.10
2023-01-29T14:34:26.909Z,13.88
2023-01-29T14:36:59.251Z,12.85
2023-01-29T14:39:36.976Z,12.50
2023-01-29T14:42:21.992Z,12.13
2023-01-29T14:45:02.506Z,15.65
2023-01-29T14:48:14.455Z,12.10
2023-01-29T14:50:59.158Z,14.88
2023-01-29T14:53:45.755Z,16.92
2023-01-29T14:56:18.813Z,13.18
2023-01-29T14:58:51.260Z,16.98
2023-01-29T15:01:25.057Z,11.25
2023-01-29T15:04:05.309Z,12.65
2023-01-29T15:06:42.440Z,11.57
2023-01-29T15:09:16.575Z,14.57
2023-01-29T15:11:51.438Z,11.40
2023-01-29T15:14:30.080Z,12.95
2023-01-29T15:17:18.861Z,15.18
2023-01-29T15:19:49.548Z,12.80
2023-01-29T15:22:20.171Z,13.68
2023-01-29T15:25:07.265Z,13.57
2023-01-29T15:27:36.175Z,12.30
2023-01-29T15:30:09.052Z,12.65
2023-01-29T15:32:40.859Z,14.30
2023-01-29T15:35:11.900Z,12.35
2023-01-29T15:37:41.294Z,13.48
2023-01-29T15:40:17.954Z,17.63
2023-01-29T15:42:48.917Z,14.40
2023-01-29T15:45:31.047Z,12.77
2023-01-29T15:48:08.519Z,13.15
2023-01-29T15:50:41.335Z,11.10
2023-01-29T15:53:15.468Z,12.38
2023-01-29T15:55:45.994Z,16.65
2023-01-29T15:58:19.089Z,13.93
2023-01-29T16:00:51.930Z,13.95
2023-01-29T16:03:24.773Z,11.98
2023-01-29T16:05:54.033Z,12.63
2023-01-29T16:08:23.511Z,12.45
2023-01-29T16:10:57.451Z,13.75
2023-01-29T16:13:29.463Z,14.40
2023-01-29T16:16:00.963Z,11.60
2023-01-29T16:18:35.164Z,13.70
2023-01-29T16:21:09.031Z,12.63
2023-01-29T16:23:43.393Z,15.40
2023-01-29T16:26:20.203Z,12.88
2023-01-29T16:28:49.361Z,23.75
2023-01-29T16:31:25.217Z,13.85
2023-01-29T16:33:53.903Z,12.80
2023-01-29T16:36:25.555Z,14.50
2023-01-29T16:38:57.814Z,18.13
2023-01-29T16:41:36.156Z,15.90
2023-01-29T16:44:07.709Z,15.38
2023-01-29T16:46:38.332Z,17.08
2023-01-29T16:49:36.880Z,14.55
2023-01-29T16:52:19.514Z,14.35
2023-01-29T16:54:47.985Z,15.95
2023-01-29T16:57:21.452Z,14.80
2023-01-29T16:59:50.971Z,16.65
2023-01-29T17:02:25.888Z,12.60
2023-01-29T17:04:58.701Z,14.02
2023-01-29T17:07:27.509Z,15.13
2023-01-29T17:10:00.186Z,22.85
2023-01-29T17:12:32.680Z,20.30
2023-01-29T17:15:03.467Z,17.00
2023-01-29T17:17:33.573Z,16.88
2023-01-29T17:20:14.728Z,14.38
2023-01-29T17:22:44.677Z,15.60
2023-01-29T17:25:17.026Z,16.17
2023-01-29T17:27:51.651Z,17.52
2023-01-29T17:30:22.294Z,12.73
2023-01-29T17:32:50.768Z,15.30
2023-01-29T17:35:19.429Z,13.80
2023-01-29T17:37:48.274Z,13.52
2023-01-29T17:40:32.508Z,14.18
2023-01-29T17:43:02.317Z,11.75
2023-01-29T17:45:30.731Z,14.50
2023-01-29T17:47:59.567Z,17.17
2023-01-29T17:50:31.696Z,12.00
2023-01-29T17:53:00.112Z,12.88
2023-01-29T17:55:28.432Z,9.85
2023-01-29T17:57:56.903Z,11.50
2023-01-29T18:00:26.635Z,11.85
2023-01-29T18:02:55.019Z,14.23
2023-01-29T18:05:23.307Z,10.82
2023-01-29T18:07:54.595Z,10.10
2023-01-29T18:10:25.286Z,10.55
2023-01-29T18:12:53.585Z,11.50
2023-01-29T18:15:22.084Z,11.80
2023-01-29T18:17:52.930Z,9.93
2023-01-29T18:20:25.765Z,12.98
2023-01-29T18:22:55.136Z,12.70
2023-01-29T18:25:24.917Z,13.07
2023-01-29T18:27:54.382Z,10.57
2023-01-29T18:30:22.917Z,10.52
2023-01-29T18:32:53.315Z,14.45
2023-01-29T18:35:22.454Z,11.27
2023-01-29T18:37:51.454Z,13.43
2023-01-29T18:40:20.155Z,13.20
2023-01-29T18:42:48.732Z,12.77
2023-01-29T18:45:17.391Z,12.13
2023-01-29T18:47:46.032Z,16.13
2023-01-29T18:50:15.746Z,217.75
2023-01-29T18:52:45.361Z,160.50
2023-01-29T18:55:13.917Z,229.77
2023-01-29T18:58:28.095Z,91.60
2023-01-29T19:00:30.723Z,30.15
2023-01-29T19:02:59.148Z,12.80
2023-01-29T19:05:28.962Z,12.55
2023-01-29T19:07:57.499Z,15.60
2023-01-29T19:10:26.016Z,42.17
2023-01-29T19:12:54.386Z,19.55
2023-01-29T19:15:23.036Z,16.65
2023-01-29T19:17:52.054Z,17.00
2023-01-29T19:20:20.944Z,17.58
2023-01-29T19:22:50.881Z,18.10
2023-01-29T19:25:20.484Z,22.13
2023-01-29T19:27:48.986Z,21.58
2023-01-29T19:30:18.056Z,22.27
2023-01-29T19:32:46.553Z,20.85
2023-01-29T19:35:15.873Z,24.17
2023-01-29T19:37:44.642Z,27.17
2023-01-29T19:40:14.961Z,22.08
2023-01-29T19:42:43.562Z,20.50
2023-01-29T19:45:12.222Z,27.60
2023-01-29T19:47:41.901Z,24.02
2023-01-29T19:50:12.566Z,24.17
2023-01-29T19:52:56.580Z,29.38
2023-01-29T19:55:26.692Z,26.75
2023-01-29T19:57:58.367Z,22.73
2023-01-29T20:00:26.882Z,22.67
2023-01-29T20:02:55.207Z,23.38
2023-01-29T20:05:24.029Z,22.98
2023-01-29T20:07:52.338Z,21.83
2023-01-29T20:10:21.244Z,23.33
2023-01-29T20:12:50.892Z,19.10
2023-01-29T20:15:19.372Z,24.63
2023-01-29T20:17:47.745Z,20.33
2023-01-29T20:20:17.605Z,20.60
2023-01-29T20:22:46.256Z,21.45
2023-01-29T20:25:16.759Z,20.08
2023-01-29T20:27:45.286Z,26.40
2023-01-29T20:30:19.378Z,24.40
2023-01-29T20:32:50.737Z,27.95
2023-01-29T20:35:19.168Z,38.53
2023-01-29T20:37:47.566Z,33.58
2023-01-29T20:40:16.709Z,31.20
2023-01-29T20:42:45.736Z,33.97
2023-01-29T20:45:16.247Z,28.48
2023-01-29T20:47:44.838Z,28.08
2023-01-29T20:50:15.707Z,29.15
2023-01-29T20:52:44.682Z,24.35
2023-01-29T20:55:14.656Z,27.83
2023-01-29T20:57:43.461Z,28.83
2023-01-29T21:00:17.630Z,24.33
2023-01-29T21:02:46.515Z,27.42
2023-01-29T21:05:15.334Z,27.55
2023-01-29T21:07:43.791Z,25.25
2023-01-29T21:10:13.107Z,25.30
2023-01-29T21:12:41.696Z,21.70
2023-01-29T21:15:11.852Z,23.58
2023-01-29T21:17:41.730Z,24.80
2023-01-29T21:20:12.204Z,26.40
2023-01-29T21:22:42.436Z,27.40
2023-01-29T21:25:11.886Z,23.38
2023-01-29T21:27:40.222Z,24.13
2023-01-29T21:30:10.479Z,27.40
2023-01-29T21:32:38.932Z,21.48
2023-01-29T21:35:10.187Z,31.33
2023-01-29T21:37:38.870Z,23.52
2023-01-29T21:40:09.956Z,22.95
2023-01-29T21:42:56.096Z,21.58
2023-01-29T21:45:24.666Z,21.83
2023-01-29T21:47:53.013Z,22.50
2023-01-29T21:50:23.345Z,24.08
2023-01-29T21:52:51.705Z,21.50
2023-01-29T21:55:20.136Z,23.92
2023-01-29T21:57:48.692Z,22.17
2023-01-29T22:00:19.117Z,21.58
2023-01-29T22:02:47.656Z,22.20
2023-01-29T22:05:19.766Z,25.70
2023-01-29T22:07:50.689Z,24.50
2023-01-29T22:10:20.620Z,23.90
2023-01-29T22:12:49.445Z,28.63
2023-01-29T22:15:18.009Z,30.30
2023-01-29T22:17:49.463Z,25.42
2023-01-29T22:20:18.942Z,28.88
2023-01-29T22:22:48.857Z,19.60
2023-01-29T22:25:19.930Z,24.27
2023-01-29T22:27:48.310Z,24.25
2023-01-29T22:30:17.347Z,21.25
2023-01-29T22:32:45.973Z,25.58
2023-01-29T22:35:14.259Z,19.67
2023-01-29T22:37:42.695Z,25.02
2023-01-29T22:40:14.219Z,21.15
2023-01-29T22:42:42.689Z,27.67
2023-01-29T22:45:12.163Z,21.25
2023-01-29T22:47:40.593Z,18.65
2023-01-29T22:50:10.203Z,17.08
2023-01-29T22:52:42.746Z,18.00
2023-01-29T22:55:14.298Z,17.67
2023-01-29T22:57:42.568Z,18.73
2023-01-29T23:00:15.202Z,19.02
2023-01-29T23:02:43.486Z,18.52
2023-01-29T23:05:11.822Z,17.33
2023-01-29T23:07:40.206Z,19.55
2023-01-29T23:10:11.135Z,17.92
2023-01-29T23:12:40.905Z,20.90
2023-01-29T23:15:10.075Z,20.95
2023-01-29T23:17:39.564Z,20.58
2023-01-29T23:20:09.783Z,18.50
2023-01-29T23:22:38.551Z,20.10
2023-01-29T23:25:08.239Z,19.00
2023-01-29T23:27:35.719Z,20.27
2023-01-29T23:30:07.529Z,18.85
2023-01-29T23:32:36.272Z,18.95
2023-01-29T23:35:04.786Z,18.00
2023-01-29T23:37:33.102Z,18.75
2023-01-29T23:40:01.642Z,21.17
2023-01-29T23:42:29.881Z,24.80
2023-01-29T23:44:58.160Z,19.50
2023-01-29T23:47:27.785Z,18.33
2023-01-29T23:49:58.673Z,17.35
2023-01-29T23:52:27.213Z,20.17
2023-01-29T23:54:55.478Z,19.75
2023-01-29T23:57:23.995Z,16.85
2023-01-29T23:59:52.169Z,20.13
